sensor_id;sensor_type;location;lat;lon;timestamp;P1;durP1;ratioP1;P2;durP2;ratioP2
4603;SDS011;2314;48.272;11.562;2024-01-15T00:00:25;17.83;;;10.07;;
4603;SDS011;2314;48.272;11.562;2024-01-15T00:02:52;20.27;;;10.47;;
4603;SDS011;2314;48.272;11.562;2024-01-15T00:05:19;22.10;;;9.90;;
4603;SDS011;2314;48.272;11.562;2024-01-15T00:07:46;20.83;;;9.13;;
4603;SDS011;2314;48.272;11.562;2024-01-15T00:10:13;16.83;;;9.00;;
4603;SDS011;2314;48.272;11.562;2024-01-15T00:12:41;14.77;;;7.73;;
4603;SDS011;2314;48.272;11.562;2024-01-15T00:15:08;14.17;;;8.00;;
4603;SDS011;2314;48.272;11.562;2024-01-15T00:17:37;14.00;;;6.87;;
4603;SDS011;2314;48.272;11.562;2024-01-15T00:20:05;17.73;;;7.17;;
4603;SDS011;2314;48.272;11.562;2024-01-15T00:22:33;13.50;;;6.90;;
4603;SDS011;2314;48.272;11.562;2024-01-15T00:25:01;16.50;;;7.13;;
4603;SDS011;2314;48.272;11.562;2024-01-15T00:27:28;17.10;;;7.80;;
4603;SDS011;2314;48.272;11.562;2024-01-15T00:29:55;13.17;;;6.67;;
4603;SDS011;2314;48.272;11.562;2024-01-15T00:32:22;14.70;;;7.43;;
4603;SDS011;2314;48.272;11.562;2024-01-15T00:34:51;16.97;;;7.93;;
4603;SDS011;2314;48.272;11.562;2024-01-15T00:37:18;11.13;;;7.23;;
4603;SDS011;2314;48.272;11.562;2024-01-15T00:39:45;15.70;;;9.07;;
4603;SDS011;2314;48.272;11.562;2024-01-15T00:42:12;21.77;;;9.40;;
4603;SDS011;2314;48.272;11.562;2024-01-15T00:44:39;16.73;;;7.73;;
4603;SDS011;2314;48.272;11.562;2024-01-15T00:47:06;19.40;;;8.87;;
4603;SDS011;2314;48.272;11.562;2024-01-15T00:49:33;24.67;;;9.90;;
4603;SDS011;2314;48.272;11.562;2024-01-15T00:52:02;20.00;;;8.67;;
4603;SDS011;2314;48.272;11.562;2024-01-15T00:54:29;17.70;;;8.90;;
4603;SDS011;2314;48.272;11.562;2024-01-15T00:56:56;18.07;;;8.33;;
4603;SDS011;2314;48.272;11.562;2024-01-15T00:59:23;16.20;;;8.37;;
4603;SDS011;2314;48.272;11.562;2024-01-15T01:01:50;14.17;;;7.70;;
4603;SDS011;2314;48.272;11.562;2024-01-15T01:04:17;17.80;;;8.80;;
4603;SDS011;2314;48.272;11.562;2024-01-15T01:06:45;16.90;;;7.90;;
4603;SDS011;2314;48.272;11.562;2024-01-15T01:09:13;17.27;;;8.90;;
4603;SDS011;2314;48.272;11.562;2024-01-15T01:11:40;20.43;;;8.50;;
4603;SDS011;2314;48.272;11.562;2024-01-15T01:14:07;15.80;;;7.87;;
4603;SDS011;2314;48.272;11.562;2024-01-15T01:16:34;16.20;;;7.50;;
4603;SDS011;2314;48.272;11.562;2024-01-15T01:19:04;21.17;;;8.13;;
4603;SDS011;2314;48.272;11.562;2024-01-15T01:21:31;17.33;;;8.33;;
4603;SDS011;2314;48.272;11.562;2024-01-15T01:23:59;16.50;;;7.50;;
4603;SDS011;2314;48.272;11.562;2024-01-15T01:26:27;15.73;;;7.10;;
4603;SDS011;2314;48.272;11.562;2024-01-15T01:28:54;14.47;;;8.10;;
4603;SDS011;2314;48.272;11.562;2024-01-15T01:31:21;15.83;;;7.00;;
4603;SDS011;2314;48.272;11.562;2024-01-15T01:33:49;14.20;;;7.67;;
4603;SDS011;2314;48.272;11.562;2024-01-15T01:36:16;16.07;;;6.97;;
4603;SDS011;2314;48.272;11.562;2024-01-15T01:38:43;17.00;;;6.73;;
4603;SDS011;2314;48.272;11.562;2024-01-15T01:41:10;11.30;;;5.97;;
4603;SDS011;2314;48.272;11.562;2024-01-15T01:43:39;13.70;;;5.40;;
4603;SDS011;2314;48.272;11.562;2024-01-15T01:46:06;14.03;;;6.73;;
4603;SDS011;2314;48.272;11.562;2024-01-15T01:48:33;14.97;;;6.30;;
4603;SDS011;2314;48.272;11.562;2024-01-15T01:51:01;10.90;;;6.13;;
4603;SDS011;2314;48.272;11.562;2024-01-15T01:53:30;16.63;;;6.30;;
4603;SDS011;2314;48.272;11.562;2024-01-15T01:55:58;13.47;;;6.17;;
4603;SDS011;2314;48.272;11.562;2024-01-15T01:58:26;11.37;;;5.97;;
4603;SDS011;2314;48.272;11.562;2024-01-15T02:00:55;13.37;;;7.07;;
4603;SDS011;2314;48.272;11.562;2024-01-15T02:03:22;14.87;;;6.50;;
4603;SDS011;2314;48.272;11.562;2024-01-15T02:05:49;16.00;;;6.17;;
4603;SDS011;2314;48.272;11.562;2024-01-15T02:08:16;17.50;;;7.07;;
4603;SDS011;2314;48.272;11.562;2024-01-15T02:10:43;14.90;;;6.60;;
4603;SDS011;2314;48.272;11.562;2024-01-15T02:13:10;14.67;;;6.70;;
4603;SDS011;2314;48.272;11.562;2024-01-15T02:15:37;14.33;;;6.70;;
4603;SDS011;2314;48.272;11.562;2024-01-15T02:18:06;17.97;;;7.73;;
4603;SDS011;2314;48.272;11.562;2024-01-15T02:20:34;15.80;;;7.50;;
4603;SDS011;2314;48.272;11.562;2024-01-15T02:23:08;17.20;;;7.10;;
4603;SDS011;2314;48.272;11.562;2024-01-15T02:25:37;13.67;;;5.83;;
4603;SDS011;2314;48.272;11.562;2024-01-15T02:28:06;10.93;;;4.67;;
4603;SDS011;2314;48.272;11.562;2024-01-15T02:30:36;15.70;;;5.40;;
4603;SDS011;2314;48.272;11.562;2024-01-15T02:33:05;12.90;;;6.43;;
4603;SDS011;2314;48.272;11.562;2024-01-15T02:35:32;12.70;;;6.03;;
4603;SDS011;2314;48.272;11.562;2024-01-15T02:38:01;11.50;;;5.87;;
4603;SDS011;2314;48.272;11.562;2024-01-15T02:40:30;13.43;;;6.50;;
4603;SDS011;2314;48.272;11.562;2024-01-15T02:42:58;18.63;;;6.00;;
4603;SDS011;2314;48.272;11.562;2024-01-15T02:45:25;10.37;;;5.60;;
4603;SDS011;2314;48.272;11.562;2024-01-15T02:47:52;9.67;;;5.10;;
4603;SDS011;2314;48.272;11.562;2024-01-15T02:50:19;14.80;;;6.57;;
4603;SDS011;2314;48.272;11.562;2024-01-15T02:52:46;15.60;;;6.73;;
4603;SDS011;2314;48.272;11.562;2024-01-15T02:55:13;10.00;;;5.23;;
4603;SDS011;2314;48.272;11.562;2024-01-15T02:57:42;12.07;;;5.27;;
4603;SDS011;2314;48.272;11.562;2024-01-15T03:00:09;10.83;;;6.00;;
4603;SDS011;2314;48.272;11.562;2024-01-15T03:02:38;10.93;;;5.30;;
4603;SDS011;2314;48.272;11.562;2024-01-15T03:05:06;9.77;;;4.70;;
4603;SDS011;2314;48.272;11.562;2024-01-15T03:07:34;15.70;;;5.73;;
4603;SDS011;2314;48.272;11.562;2024-01-15T03:10:01;11.87;;;5.67;;
4603;SDS011;2314;48.272;11.562;2024-01-15T03:12:28;9.40;;;4.30;;
4603;SDS011;2314;48.272;11.562;2024-01-15T03:14:57;9.70;;;5.63;;
4603;SDS011;2314;48.272;11.562;2024-01-15T03:17:24;12.83;;;6.40;;
4603;SDS011;2314;48.272;11.562;2024-01-15T03:19:51;14.67;;;6.67;;
4603;SDS011;2314;48.272;11.562;2024-01-15T03:22:18;12.40;;;5.50;;
4603;SDS011;2314;48.272;11.562;2024-01-15T03:24:45;12.83;;;5.57;;
4603;SDS011;2314;48.272;11.562;2024-01-15T03:27:12;11.70;;;5.97;;
4603;SDS011;2314;48.272;11.562;2024-01-15T03:29:39;15.10;;;7.87;;
4603;SDS011;2314;48.272;11.562;2024-01-15T03:32:07;11.93;;;5.83;;
4603;SDS011;2314;48.272;11.562;2024-01-15T03:34:35;16.50;;;5.20;;
4603;SDS011;2314;48.272;11.562;2024-01-15T03:37:02;16.10;;;7.10;;
4603;SDS011;2314;48.272;11.562;2024-01-15T03:39:29;20.30;;;6.63;;
4603;SDS011;2314;48.272;11.562;2024-01-15T03:41:56;11.53;;;5.73;;
4603;SDS011;2314;48.272;11.562;2024-01-15T03:44:23;11.60;;;6.10;;
4603;SDS011;2314;48.272;11.562;2024-01-15T03:46:51;12.20;;;6.23;;
4603;SDS011;2314;48.272;11.562;2024-01-15T03:49:19;12.43;;;6.13;;
4603;SDS011;2314;48.272;11.562;2024-01-15T03:51:46;12.43;;;6.57;;
4603;SDS011;2314;48.272;11.562;2024-01-15T03:54:13;14.03;;;6.83;;
4603;SDS011;2314;48.272;11.562;2024-01-15T03:56:41;15.77;;;7.13;;
4603;SDS011;2314;48.272;11.562;2024-01-15T03:59:08;13.47;;;6.70;;
4603;SDS011;2314;48.272;11.562;2024-01-15T04:01:35;12.47;;;6.07;;
4603;SDS011;2314;48.272;11.562;2024-01-15T04:04:02;16.03;;;8.43;;
4603;SDS011;2314;48.272;11.562;2024-01-15T04:06:30;15.13;;;6.97;;
4603;SDS011;2314;48.272;11.562;2024-01-15T04:08:58;13.43;;;7.20;;
4603;SDS011;2314;48.272;11.562;2024-01-15T04:11:25;12.60;;;6.90;;
4603;SDS011;2314;48.272;11.562;2024-01-15T04:13:52;13.63;;;6.93;;
4603;SDS011;2314;48.272;11.562;2024-01-15T04:16:19;13.90;;;7.33;;
4603;SDS011;2314;48.272;11.562;2024-01-15T04:18:46;17.77;;;7.57;;
4603;SDS011;2314;48.272;11.562;2024-01-15T04:21:13;19.37;;;7.33;;
4603;SDS011;2314;48.272;11.562;2024-01-15T04:23:42;16.97;;;7.13;;
4603;SDS011;2314;48.272;11.562;2024-01-15T04:26:09;14.13;;;6.50;;
4603;SDS011;2314;48.272;11.562;2024-01-15T04:28:36;9.70;;;5.73;;
4603;SDS011;2314;48.272;11.562;2024-01-15T04:31:03;15.70;;;6.57;;
4603;SDS011;2314;48.272;11.562;2024-01-15T04:33:30;15.90;;;7.87;;
4603;SDS011;2314;48.272;11.562;2024-01-15T04:36:00;14.83;;;6.83;;
4603;SDS011;2314;48.272;11.562;2024-01-15T04:38:28;13.27;;;6.03;;
4603;SDS011;2314;48.272;11.562;2024-01-15T04:40:57;12.83;;;6.00;;
4603;SDS011;2314;48.272;11.562;2024-01-15T04:43:23;9.93;;;5.40;;
4603;SDS011;2314;48.272;11.562;2024-01-15T04:45:50;13.40;;;6.33;;
4603;SDS011;2314;48.272;11.562;2024-01-15T04:48:18;18.47;;;7.13;;
4603;SDS011;2314;48.272;11.562;2024-01-15T04:50:45;13.77;;;6.20;;
4603;SDS011;2314;48.272;11.562;2024-01-15T04:53:13;13.10;;;5.27;;
4603;SDS011;2314;48.272;11.562;2024-01-15T04:55:40;16.17;;;6.57;;
4603;SDS011;2314;48.272;11.562;2024-01-15T04:58:08;11.43;;;5.83;;
4603;SDS011;2314;48.272;11.562;2024-01-15T05:00:35;12.30;;;5.67;;
4603;SDS011;2314;48.272;11.562;2024-01-15T05:03:02;14.47;;;6.20;;
4603;SDS011;2314;48.272;11.562;2024-01-15T05:05:30;15.77;;;7.27;;
4603;SDS011;2314;48.272;11.562;2024-01-15T05:07:57;14.50;;;6.67;;
4603;SDS011;2314;48.272;11.562;2024-01-15T05:10:24;12.10;;;6.07;;
4603;SDS011;2314;48.272;11.562;2024-01-15T05:12:51;13.20;;;6.00;;
4603;SDS011;2314;48.272;11.562;2024-01-15T05:15:20;10.23;;;5.60;;
4603;SDS011;2314;48.272;11.562;2024-01-15T05:17:47;13.13;;;5.73;;
4603;SDS011;2314;48.272;11.562;2024-01-15T05:20:14;11.30;;;5.20;;
4603;SDS011;2314;48.272;11.562;2024-01-15T05:22:42;10.93;;;5.20;;
4603;SDS011;2314;48.272;11.562;2024-01-15T05:25:09;9.20;;;5.57;;
4603;SDS011;2314;48.272;11.562;2024-01-15T05:27:36;10.90;;;5.50;;
4603;SDS011;2314;48.272;11.562;2024-01-15T05:30:03;16.50;;;6.57;;
4603;SDS011;2314;48.272;11.562;2024-01-15T05:32:32;12.37;;;5.50;;
4603;SDS011;2314;48.272;11.562;2024-01-15T05:34:59;10.63;;;5.33;;
4603;SDS011;2314;48.272;11.562;2024-01-15T05:37:26;11.90;;;6.27;;
4603;SDS011;2314;48.272;11.562;2024-01-15T05:39:53;14.40;;;6.07;;
4603;SDS011;2314;48.272;11.562;2024-01-15T05:42:20;11.63;;;5.40;;
4603;SDS011;2314;48.272;11.562;2024-01-15T05:44:47;11.90;;;5.83;;
4603;SDS011;2314;48.272;11.562;2024-01-15T05:47:15;12.43;;;5.43;;
4603;SDS011;2314;48.272;11.562;2024-01-15T05:49:43;10.40;;;5.50;;
4603;SDS011;2314;48.272;11.562;2024-01-15T05:52:10;11.80;;;5.73;;
4603;SDS011;2314;48.272;11.562;2024-01-15T05:54:37;9.60;;;5.80;;
4603;SDS011;2314;48.272;11.562;2024-01-15T05:57:04;15.30;;;6.30;;
4603;SDS011;2314;48.272;11.562;2024-01-15T05:59:31;11.60;;;5.33;;
4603;SDS011;2314;48.272;11.562;2024-01-15T06:02:01;11.27;;;5.50;;
4603;SDS011;2314;48.272;11.562;2024-01-15T06:04:28;10.47;;;4.77;;
4603;SDS011;2314;48.272;11.562;2024-01-15T06:06:56;11.47;;;5.47;;
4603;SDS011;2314;48.272;11.562;2024-01-15T06:09:23;11.10;;;4.60;;
4603;SDS011;2314;48.272;11.562;2024-01-15T06:11:50;13.10;;;6.30;;
4603;SDS011;2314;48.272;11.562;2024-01-15T06:14:17;9.80;;;5.17;;
4603;SDS011;2314;48.272;11.562;2024-01-15T06:16:44;9.90;;;4.17;;
4603;SDS011;2314;48.272;11.562;2024-01-15T06:19:11;11.37;;;4.80;;
4603;SDS011;2314;48.272;11.562;2024-01-15T06:21:38;11.73;;;4.70;;
4603;SDS011;2314;48.272;11.562;2024-01-15T06:24:06;7.93;;;5.33;;
4603;SDS011;2314;48.272;11.562;2024-01-15T06:26:34;9.10;;;5.27;;
4603;SDS011;2314;48.272;11.562;2024-01-15T06:29:01;12.17;;;5.07;;
4603;SDS011;2314;48.272;11.562;2024-01-15T06:31:28;7.83;;;4.10;;
4603;SDS011;2314;48.272;11.562;2024-01-15T06:33:55;10.53;;;5.00;;
4603;SDS011;2314;48.272;11.562;2024-01-15T06:36:22;10.57;;;4.70;;
4603;SDS011;2314;48.272;11.562;2024-01-15T06:38:49;14.80;;;4.50;;
4603;SDS011;2314;48.272;11.562;2024-01-15T06:41:18;8.70;;;4.13;;
4603;SDS011;2314;48.272;11.562;2024-01-15T06:43:45;8.83;;;4.57;;
4603;SDS011;2314;48.272;11.562;2024-01-15T06:46:12;9.50;;;4.63;;
4603;SDS011;2314;48.272;11.562;2024-01-15T06:48:39;9.43;;;6.30;;
4603;SDS011;2314;48.272;11.562;2024-01-15T06:51:06;10.60;;;5.30;;
4603;SDS011;2314;48.272;11.562;2024-01-15T06:53:33;10.73;;;4.43;;
4603;SDS011;2314;48.272;11.562;2024-01-15T06:56:00;11.03;;;5.07;;
4603;SDS011;2314;48.272;11.562;2024-01-15T06:58:28;9.90;;;4.87;;
4603;SDS011;2314;48.272;11.562;2024-01-15T07:00:57;7.33;;;4.03;;
4603;SDS011;2314;48.272;11.562;2024-01-15T07:03:24;7.80;;;3.40;;
4603;SDS011;2314;48.272;11.562;2024-01-15T07:05:51;7.83;;;4.03;;
4603;SDS011;2314;48.272;11.562;2024-01-15T07:08:18;7.57;;;4.43;;
4603;SDS011;2314;48.272;11.562;2024-01-15T07:10:45;9.67;;;4.50;;
4603;SDS011;2314;48.272;11.562;2024-01-15T07:13:12;12.23;;;4.43;;
4603;SDS011;2314;48.272;11.562;2024-01-15T07:15:41;9.90;;;4.63;;
4603;SDS011;2314;48.272;11.562;2024-01-15T07:18:08;11.03;;;4.87;;
4603;SDS011;2314;48.272;11.562;2024-01-15T07:20:35;9.10;;;4.67;;
4603;SDS011;2314;48.272;11.562;2024-01-15T07:23:02;7.27;;;4.20;;
4603;SDS011;2314;48.272;11.562;2024-01-15T07:25:29;9.00;;;4.07;;
4603;SDS011;2314;48.272;11.562;2024-01-15T07:27:56;11.93;;;4.70;;
4603;SDS011;2314;48.272;11.562;2024-01-15T07:30:23;7.63;;;4.10;;
4603;SDS011;2314;48.272;11.562;2024-01-15T07:32:52;7.77;;;3.60;;
4603;SDS011;2314;48.272;11.562;2024-01-15T07:35:19;8.80;;;3.63;;
4603;SDS011;2314;48.272;11.562;2024-01-15T07:37:46;11.50;;;4.60;;
4603;SDS011;2314;48.272;11.562;2024-01-15T07:40:13;8.30;;;4.47;;
4603;SDS011;2314;48.272;11.562;2024-01-15T07:42:40;11.60;;;5.40;;
4603;SDS011;2314;48.272;11.562;2024-01-15T07:45:08;9.83;;;4.60;;
4603;SDS011;2314;48.272;11.562;2024-01-15T07:47:36;10.23;;;4.87;;
4603;SDS011;2314;48.272;11.562;2024-01-15T07:50:04;9.80;;;4.13;;
4603;SDS011;2314;48.272;11.562;2024-01-15T07:52:32;13.03;;;5.50;;
4603;SDS011;2314;48.272;11.562;2024-01-15T07:54:59;12.07;;;5.47;;
4603;SDS011;2314;48.272;11.562;2024-01-15T07:57:26;14.77;;;6.20;;
4603;SDS011;2314;48.272;11.562;2024-01-15T07:59:53;8.97;;;4.97;;
4603;SDS011;2314;48.272;11.562;2024-01-15T08:02:20;8.60;;;4.07;;
4603;SDS011;2314;48.272;11.562;2024-01-15T08:04:47;12.10;;;5.43;;
4603;SDS011;2314;48.272;11.562;2024-01-15T08:07:16;13.37;;;5.00;;
4603;SDS011;2314;48.272;11.562;2024-01-15T08:09:43;11.40;;;5.17;;
4603;SDS011;2314;48.272;11.562;2024-01-15T08:12:12;8.37;;;4.40;;
4603;SDS011;2314;48.272;11.562;2024-01-15T08:14:39;10.13;;;5.07;;
4603;SDS011;2314;48.272;11.562;2024-01-15T08:17:06;9.27;;;4.37;;
4603;SDS011;2314;48.272;11.562;2024-01-15T08:19:33;9.67;;;4.83;;
4603;SDS011;2314;48.272;11.562;2024-01-15T08:22:00;12.10;;;5.20;;
4603;SDS011;2314;48.272;11.562;2024-01-15T08:24:29;10.97;;;5.53;;
4603;SDS011;2314;48.272;11.562;2024-01-15T08:26:56;9.00;;;4.77;;
4603;SDS011;2314;48.272;11.562;2024-01-15T08:29:23;9.97;;;5.37;;
4603;SDS011;2314;48.272;11.562;2024-01-15T08:31:50;11.23;;;5.13;;
4603;SDS011;2314;48.272;11.562;2024-01-15T08:34:18;9.80;;;4.47;;
4603;SDS011;2314;48.272;11.562;2024-01-15T08:36:45;15.27;;;6.50;;
4603;SDS011;2314;48.272;11.562;2024-01-15T08:39:13;10.63;;;4.97;;
4603;SDS011;2314;48.272;11.562;2024-01-15T08:41:41;11.53;;;5.93;;
4603;SDS011;2314;48.272;11.562;2024-01-15T08:44:08;11.13;;;5.00;;
4603;SDS011;2314;48.272;11.562;2024-01-15T08:46:35;10.53;;;4.87;;
4603;SDS011;2314;48.272;11.562;2024-01-15T08:49:02;11.90;;;4.47;;
4603;SDS011;2314;48.272;11.562;2024-01-15T08:51:31;9.50;;;5.53;;
4603;SDS011;2314;48.272;11.562;2024-01-15T08:53:58;11.37;;;5.47;;
4603;SDS011;2314;48.272;11.562;2024-01-15T08:56:25;9.60;;;5.30;;
4603;SDS011;2314;48.272;11.562;2024-01-15T08:58:54;10.37;;;4.50;;
4603;SDS011;2314;48.272;11.562;2024-01-15T09:01:21;7.77;;;4.47;;
4603;SDS011;2314;48.272;11.562;2024-01-15T09:03:52;8.97;;;5.00;;
4603;SDS011;2314;48.272;11.562;2024-01-15T09:06:19;6.43;;;3.70;;
4603;SDS011;2314;48.272;11.562;2024-01-15T09:08:46;8.83;;;4.50;;
4603;SDS011;2314;48.272;11.562;2024-01-15T09:11:14;10.33;;;4.60;;
4603;SDS011;2314;48.272;11.562;2024-01-15T09:13:41;9.40;;;4.43;;
4603;SDS011;2314;48.272;11.562;2024-01-15T09:16:09;7.80;;;3.77;;
4603;SDS011;2314;48.272;11.562;2024-01-15T09:18:36;7.77;;;3.80;;
4603;SDS011;2314;48.272;11.562;2024-01-15T09:21:04;10.07;;;5.20;;
4603;SDS011;2314;48.272;11.562;2024-01-15T09:23:31;12.80;;;4.67;;
4603;SDS011;2314;48.272;11.562;2024-01-15T09:25:58;8.60;;;4.17;;
4603;SDS011;2314;48.272;11.562;2024-01-15T09:28:25;9.50;;;5.00;;
4603;SDS011;2314;48.272;11.562;2024-01-15T09:30:52;12.93;;;4.90;;
4603;SDS011;2314;48.272;11.562;2024-01-15T09:33:21;10.10;;;5.03;;
4603;SDS011;2314;48.272;11.562;2024-01-15T09:35:48;9.83;;;4.70;;
4603;SDS011;2314;48.272;11.562;2024-01-15T09:38:15;9.83;;;4.40;;
4603;SDS011;2314;48.272;11.562;2024-01-15T09:40:43;12.90;;;5.13;;
4603;SDS011;2314;48.272;11.562;2024-01-15T09:43:13;12.90;;;5.30;;
4603;SDS011;2314;48.272;11.562;2024-01-15T09:45:42;9.50;;;4.77;;
4603;SDS011;2314;48.272;11.562;2024-01-15T09:48:09;10.77;;;5.37;;
4603;SDS011;2314;48.272;11.562;2024-01-15T09:50:39;9.70;;;4.37;;
4603;SDS011;2314;48.272;11.562;2024-01-15T09:53:06;9.70;;;4.17;;
4603;SDS011;2314;48.272;11.562;2024-01-15T09:55:33;10.90;;;5.10;;
4603;SDS011;2314;48.272;11.562;2024-01-15T09:58:00;8.67;;;4.20;;
4603;SDS011;2314;48.272;11.562;2024-01-15T10:00:28;13.90;;;5.33;;
4603;SDS011;2314;48.272;11.562;2024-01-15T10:02:56;9.00;;;4.47;;
4603;SDS011;2314;48.272;11.562;2024-01-15T10:05:25;10.37;;;4.63;;
4603;SDS011;2314;48.272;11.562;2024-01-15T10:07:54;12.90;;;5.07;;
4603;SDS011;2314;48.272;11.562;2024-01-15T10:10:23;10.70;;;4.63;;
4603;SDS011;2314;48.272;11.562;2024-01-15T10:12:50;10.67;;;4.43;;
4603;SDS011;2314;48.272;11.562;2024-01-15T10:15:17;9.53;;;4.50;;
4603;SDS011;2314;48.272;11.562;2024-01-15T10:17:48;9.30;;;4.20;;
4603;SDS011;2314;48.272;11.562;2024-01-15T10:20:16;10.53;;;4.40;;
4603;SDS011;2314;48.272;11.562;2024-01-15T10:22:43;7.57;;;4.37;;
4603;SDS011;2314;48.272;11.562;2024-01-15T10:25:13;6.83;;;3.83;;
4603;SDS011;2314;48.272;11.562;2024-01-15T10:27:41;11.57;;;3.80;;
4603;SDS011;2314;48.272;11.562;2024-01-15T10:30:08;10.43;;;4.30;;
4603;SDS011;2314;48.272;11.562;2024-01-15T10:32:39;6.93;;;3.80;;
4603;SDS011;2314;48.272;11.562;2024-01-15T10:35:07;9.00;;;3.60;;
4603;SDS011;2314;48.272;11.562;2024-01-15T10:37:34;9.57;;;3.93;;
4603;SDS011;2314;48.272;11.562;2024-01-15T10:40:02;6.00;;;2.63;;
4603;SDS011;2314;48.272;11.562;2024-01-15T10:42:32;11.50;;;4.03;;
4603;SDS011;2314;48.272;11.562;2024-01-15T10:44:59;7.00;;;3.30;;
4603;SDS011;2314;48.272;11.562;2024-01-15T10:47:26;8.27;;;4.10;;
4603;SDS011;2314;48.272;11.562;2024-01-15T10:49:53;6.20;;;2.83;;
4603;SDS011;2314;48.272;11.562;2024-01-15T10:52:21;8.33;;;3.30;;
4603;SDS011;2314;48.272;11.562;2024-01-15T10:54:49;7.37;;;3.83;;
4603;SDS011;2314;48.272;11.562;2024-01-15T10:57:16;6.77;;;3.23;;
4603;SDS011;2314;48.272;11.562;2024-01-15T10:59:45;9.90;;;3.57;;
4603;SDS011;2314;48.272;11.562;2024-01-15T11:02:13;5.77;;;3.03;;
4603;SDS011;2314;48.272;11.562;2024-01-15T11:04:41;6.40;;;3.20;;
4603;SDS011;2314;48.272;11.562;2024-01-15T11:07:08;7.20;;;3.60;;
4603;SDS011;2314;48.272;11.562;2024-01-15T11:09:37;7.37;;;3.90;;
4603;SDS011;2314;48.272;11.562;2024-01-15T11:12:07;7.30;;;3.10;;
4603;SDS011;2314;48.272;11.562;2024-01-15T11:14:38;10.40;;;3.90;;
4603;SDS011;2314;48.272;11.562;2024-01-15T11:17:10;8.13;;;3.40;;
4603;SDS011;2314;48.272;11.562;2024-01-15T11:19:38;8.03;;;3.53;;
4603;SDS011;2314;48.272;11.562;2024-01-15T11:22:09;7.50;;;3.57;;
4603;SDS011;2314;48.272;11.562;2024-01-15T11:25:13;7.80;;;3.80;;
4603;SDS011;2314;48.272;11.562;2024-01-15T11:27:43;7.37;;;3.33;;
4603;SDS011;2314;48.272;11.562;2024-01-15T11:30:12;8.03;;;4.40;;
4603;SDS011;2314;48.272;11.562;2024-01-15T11:32:42;6.57;;;3.00;;
4603;SDS011;2314;48.272;11.562;2024-01-15T11:35:10;6.43;;;3.23;;
4603;SDS011;2314;48.272;11.562;2024-01-15T11:37:56;8.10;;;3.50;;
4603;SDS011;2314;48.272;11.562;2024-01-15T11:40:36;9.43;;;3.80;;
4603;SDS011;2314;48.272;11.562;2024-01-15T11:43:04;7.63;;;3.50;;
4603;SDS011;2314;48.272;11.562;2024-01-15T11:45:34;6.33;;;3.13;;
4603;SDS011;2314;48.272;11.562;2024-01-15T11:48:13;10.83;;;4.27;;
4603;SDS011;2314;48.272;11.562;2024-01-15T11:50:42;10.37;;;3.80;;
4603;SDS011;2314;48.272;11.562;2024-01-15T11:53:16;9.03;;;3.40;;
4603;SDS011;2314;48.272;11.562;2024-01-15T11:55:47;6.40;;;3.37;;
4603;SDS011;2314;48.272;11.562;2024-01-15T11:58:18;6.20;;;3.33;;
4603;SDS011;2314;48.272;11.562;2024-01-15T12:00:47;10.40;;;3.53;;
4603;SDS011;2314;48.272;11.562;2024-01-15T12:03:16;10.80;;;4.10;;
4603;SDS011;2314;48.272;11.562;2024-01-15T12:05:43;8.90;;;3.70;;
4603;SDS011;2314;48.272;11.562;2024-01-15T12:08:10;9.10;;;4.30;;
4603;SDS011;2314;48.272;11.562;2024-01-15T12:10:37;7.10;;;3.47;;
4603;SDS011;2314;48.272;11.562;2024-01-15T12:13:06;9.33;;;4.27;;
4603;SDS011;2314;48.272;11.562;2024-01-15T12:15:37;5.90;;;3.03;;
4603;SDS011;2314;48.272;11.562;2024-01-15T12:18:07;11.30;;;3.50;;
4603;SDS011;2314;48.272;11.562;2024-01-15T12:20:36;6.77;;;3.67;;
4603;SDS011;2314;48.272;11.562;2024-01-15T12:23:04;8.27;;;3.73;;
4603;SDS011;2314;48.272;11.562;2024-01-15T12:25:31;10.10;;;3.83;;
4603;SDS011;2314;48.272;11.562;2024-01-15T12:27:59;9.50;;;3.53;;
4603;SDS011;2314;48.272;11.562;2024-01-15T12:30:27;6.90;;;3.00;;
4603;SDS011;2314;48.272;11.562;2024-01-15T12:32:56;8.00;;;3.90;;
4603;SDS011;2314;48.272;11.562;2024-01-15T12:35:23;5.33;;;3.03;;
4603;SDS011;2314;48.272;11.562;2024-01-15T12:37:53;4.87;;;2.60;;
4603;SDS011;2314;48.272;11.562;2024-01-15T12:40:21;6.07;;;2.80;;
4603;SDS011;2314;48.272;11.562;2024-01-15T12:42:50;5.40;;;2.53;;
4603;SDS011;2314;48.272;11.562;2024-01-15T12:45:16;5.87;;;2.93;;
4603;SDS011;2314;48.272;11.562;2024-01-15T12:47:44;7.53;;;2.77;;
4603;SDS011;2314;48.272;11.562;2024-01-15T12:50:13;4.80;;;2.77;;
4603;SDS011;2314;48.272;11.562;2024-01-15T12:52:40;6.20;;;3.10;;
4603;SDS011;2314;48.272;11.562;2024-01-15T12:55:09;5.67;;;2.60;;
4603;SDS011;2314;48.272;11.562;2024-01-15T12:57:37;5.27;;;2.83;;
4603;SDS011;2314;48.272;11.562;2024-01-15T13:00:04;6.13;;;3.47;;
4603;SDS011;2314;48.272;11.562;2024-01-15T13:02:37;5.57;;;2.90;;
4603;SDS011;2314;48.272;11.562;2024-01-15T13:05:05;6.50;;;3.27;;
4603;SDS011;2314;48.272;11.562;2024-01-15T13:07:33;9.80;;;3.23;;
4603;SDS011;2314;48.272;11.562;2024-01-15T13:10:00;7.67;;;3.27;;
4603;SDS011;2314;48.272;11.562;2024-01-15T13:12:29;6.27;;;3.30;;
4603;SDS011;2314;48.272;11.562;2024-01-15T13:14:57;7.30;;;3.63;;
4603;SDS011;2314;48.272;11.562;2024-01-15T13:17:25;4.73;;;2.70;;
4603;SDS011;2314;48.272;11.562;2024-01-15T13:19:52;6.33;;;3.40;;
4603;SDS011;2314;48.272;11.562;2024-01-15T13:22:20;4.57;;;2.67;;
4603;SDS011;2314;48.272;11.562;2024-01-15T13:24:47;6.40;;;3.40;;
4603;SDS011;2314;48.272;11.562;2024-01-15T13:27:14;9.47;;;4.00;;
4603;SDS011;2314;48.272;11.562;2024-01-15T13:29:43;7.20;;;3.67;;
4603;SDS011;2314;48.272;11.562;2024-01-15T13:32:10;6.50;;;2.63;;
4603;SDS011;2314;48.272;11.562;2024-01-15T13:34:43;5.33;;;3.00;;
4603;SDS011;2314;48.272;11.562;2024-01-15T13:37:10;7.97;;;3.17;;
4603;SDS011;2314;48.272;11.562;2024-01-15T13:39:38;7.17;;;3.20;;
4603;SDS011;2314;48.272;11.562;2024-01-15T13:42:05;6.50;;;2.97;;
4603;SDS011;2314;48.272;11.562;2024-01-15T13:44:32;7.53;;;3.47;;
4603;SDS011;2314;48.272;11.562;2024-01-15T13:47:00;6.53;;;3.27;;
4603;SDS011;2314;48.272;11.562;2024-01-15T13:49:27;7.27;;;3.40;;
4603;SDS011;2314;48.272;11.562;2024-01-15T13:51:54;6.43;;;3.30;;
4603;SDS011;2314;48.272;11.562;2024-01-15T13:54:22;7.70;;;3.30;;
4603;SDS011;2314;48.272;11.562;2024-01-15T13:56:49;12.93;;;3.50;;
4603;SDS011;2314;48.272;11.562;2024-01-15T13:59:16;7.60;;;3.70;;
4603;SDS011;2314;48.272;11.562;2024-01-15T14:01:43;7.17;;;3.13;;
4603;SDS011;2314;48.272;11.562;2024-01-15T14:04:13;7.57;;;3.73;;
4603;SDS011;2314;48.272;11.562;2024-01-15T14:06:40;7.27;;;3.53;;
4603;SDS011;2314;48.272;11.562;2024-01-15T14:09:07;8.07;;;4.07;;
4603;SDS011;2314;48.272;11.562;2024-01-15T14:11:35;11.27;;;4.90;;
4603;SDS011;2314;48.272;11.562;2024-01-15T14:14:03;9.00;;;3.80;;
4603;SDS011;2314;48.272;11.562;2024-01-15T14:16:30;7.50;;;4.13;;
4603;SDS011;2314;48.272;11.562;2024-01-15T14:18:57;12.10;;;5.20;;
4603;SDS011;2314;48.272;11.562;2024-01-15T14:21:25;11.50;;;4.37;;
4603;SDS011;2314;48.272;11.562;2024-01-15T14:23:52;10.73;;;4.93;;
4603;SDS011;2314;48.272;11.562;2024-01-15T14:26:19;10.77;;;3.87;;
4603;SDS011;2314;48.272;11.562;2024-01-15T14:28:46;8.90;;;4.50;;
4603;SDS011;2314;48.272;11.562;2024-01-15T14:31:14;8.70;;;4.83;;
4603;SDS011;2314;48.272;11.562;2024-01-15T14:33:41;9.00;;;4.50;;
4603;SDS011;2314;48.272;11.562;2024-01-15T14:36:08;11.17;;;4.60;;
4603;SDS011;2314;48.272;11.562;2024-01-15T14:38:36;13.13;;;5.70;;
4603;SDS011;2314;48.272;11.562;2024-01-15T14:41:03;11.33;;;5.77;;
4603;SDS011;2314;48.272;11.562;2024-01-15T14:43:30;9.20;;;4.10;;
4603;SDS011;2314;48.272;11.562;2024-01-15T14:45:58;10.87;;;4.60;;
4603;SDS011;2314;48.272;11.562;2024-01-15T14:48:25;9.93;;;4.60;;
4603;SDS011;2314;48.272;11.562;2024-01-15T14:50:52;11.00;;;4.87;;
4603;SDS011;2314;48.272;11.562;2024-01-15T14:53:19;8.17;;;4.13;;
4603;SDS011;2314;48.272;11.562;2024-01-15T14:55:47;8.37;;;4.33;;